createdAt,value
2023-05-05T18:44:43.367Z,100609.25
2023-05-05T18:47:10.282Z,100613.56
2023-05-05T18:49:37.499Z,100616.06
2023-05-05T18:52:04.487Z,100612.25
2023-05-05T18:54:31.682Z,100613.09
2023-05-05T18:56:59.225Z,100615.25
2023-05-05T18:59:26.297Z,100622.16
2023-05-05T19:01:53.308Z,100621.00
2023-05-05T19:04:30.574Z,100623.97
2023-05-05T19:06:59.570Z,100629.75
2023-05-05T19:09:26.564Z,100633.41
2023-05-05T19:11:53.409Z,100639.69
2023-05-05T19:14:20.272Z,100641.66
2023-05-05T19:16:47.292Z,100646.78
2023-05-05T19:19:14.341Z,100649.41
2023-05-05T19:21:41.456Z,100650.56
2023-05-05T19:24:09.405Z,100648.09
2023-05-05T19:26:36.376Z,100650.91
2023-05-05T19:29:03.244Z,100655.38
2023-05-05T19:31:31.154Z,100655.38
2023-05-05T19:34:05.263Z,100650.25
2023-05-05T19:36:33.597Z,100648.75
2023-05-05T19:39:04.711Z,100651.53
2023-05-05T19:41:31.606Z,100654.84
2023-05-05T19:43:58.616Z,100653.84
2023-05-05T19:46:26.675Z,100655.84
2023-05-05T19:48:53.743Z,100656.16
2023-05-05T19:51:20.666Z,100656.81
2023-05-05T19:53:47.568Z,100660.44
2023-05-05T19:56:14.623Z,100661.06
2023-05-05T19:58:58.897Z,100661.25
2023-05-05T20:01:27.527Z,100666.69
2023-05-05T20:03:56.350Z,100665.03
2023-05-05T20:06:23.562Z,100664.38
2023-05-05T20:08:50.552Z,100665.69
2023-05-05T20:11:18.154Z,100664.34
2023-05-05T20:13:45.192Z,100661.66
2023-05-05T20:16:12.203Z,100666.38
2023-05-05T20:18:40.147Z,100670.31
2023-05-05T20:21:07.143Z,100668.81
2023-05-05T20:23:34.202Z,100667.31
2023-05-05T20:26:01.584Z,100667.31
2023-05-05T20:28:28.510Z,100676.59
2023-05-05T20:30:55.379Z,100671.81
2023-05-05T20:33:22.234Z,100670.81
2023-05-05T20:35:49.133Z,100672.78
2023-05-05T20:38:16.038Z,100668.16
2023-05-05T20:40:42.879Z,100666.97
2023-05-05T20:43:09.718Z,100676.22
2023-05-05T20:45:37.087Z,100671.69
2023-05-05T20:48:05.608Z,100676.09
2023-05-05T20:50:32.660Z,100680.38
2023-05-05T20:52:59.643Z,100675.03
2023-05-05T20:55:26.649Z,100687.69
2023-05-05T20:57:53.576Z,100688.31
2023-05-05T21:00:20.494Z,100686.97
2023-05-05T21:02:47.816Z,100691.44
2023-05-05T21:05:14.831Z,100694.22
2023-05-05T21:07:41.671Z,100696.19
2023-05-05T21:10:09.785Z,100694.69
2023-05-05T21:12:37.198Z,100703.72
2023-05-05T21:15:04.462Z,100694.72
2023-05-05T21:17:31.354Z,100695.84
2023-05-05T21:19:58.323Z,100692.69
2023-05-05T21:22:25.199Z,100694.50
2023-05-05T21:24:52.216Z,100694.00
2023-05-05T21:27:19.913Z,100689.69
2023-05-05T21:29:46.890Z,100689.41
2023-05-05T21:32:13.801Z,100689.78
2023-05-05T21:34:40.748Z,100689.34
2023-05-05T21:37:07.808Z,100684.41
2023-05-05T21:39:35.349Z,100686.91
2023-05-05T21:42:02.517Z,100685.97
2023-05-05T21:44:29.551Z,100686.31
2023-05-05T21:46:56.471Z,100692.53
2023-05-05T21:49:23.414Z,100682.16
2023-05-05T21:51:50.418Z,100682.47
2023-05-05T21:54:17.262Z,100687.03
2023-05-05T21:56:44.292Z,100679.63
2023-05-05T21:59:11.239Z,100684.97
2023-05-05T22:01:38.115Z,100682.63
2023-05-05T22:04:05.186Z,100688.03
2023-05-05T22:06:32.550Z,100678.94
2023-05-05T22:08:59.403Z,100687.97
2023-05-05T22:11:27.337Z,100697.16
2023-05-05T22:13:54.255Z,100700.09
2023-05-05T22:16:21.175Z,100700.41
2023-05-05T22:18:48.070Z,100706.66
2023-05-05T22:21:14.978Z,100707.78
2023-05-05T22:23:41.923Z,100712.06
2023-05-05T22:26:09.733Z,100700.84
2023-05-05T22:28:36.715Z,100709.19
2023-05-05T22:31:03.688Z,100701.75
2023-05-05T22:33:30.628Z,100699.41
2023-05-05T22:35:57.521Z,100701.94
2023-05-05T22:38:24.331Z,100700.91
2023-05-05T22:40:51.182Z,100701.03
2023-05-05T22:43:18.094Z,100705.78
2023-05-05T22:45:45.265Z,100702.47
2023-05-05T22:48:12.117Z,100695.16
2023-05-05T22:50:39.051Z,100705.81
2023-05-05T22:53:07.470Z,100703.31
2023-05-05T22:55:34.394Z,100705.00
2023-05-05T22:58:01.254Z,100698.91
2023-05-05T23:00:28.285Z,100709.16
2023-05-05T23:02:55.493Z,100713.59
2023-05-05T23:05:22.399Z,100705.53
2023-05-05T23:07:49.331Z,100703.28
2023-05-05T23:10:16.347Z,100703.41
2023-05-05T23:12:43.266Z,100708.56
2023-05-05T23:15:11.196Z,100697.88
2023-05-05T23:17:38.337Z,100706.38
2023-05-05T23:20:06.310Z,100704.69
2023-05-05T23:22:33.090Z,100707.31
2023-05-05T23:25:00.114Z,100706.63
2023-05-05T23:27:27.087Z,100700.00
2023-05-05T23:29:53.943Z,100705.44
2023-05-05T23:32:21.322Z,100700.28
2023-05-05T23:34:48.153Z,100709.16
2023-05-05T23:37:14.955Z,100710.41
2023-05-05T23:39:42.370Z,100710.41
2023-05-05T23:42:09.273Z,100712.75
2023-05-05T23:44:36.483Z,100704.03
2023-05-05T23:47:04.242Z,100701.69
2023-05-05T23:49:31.064Z,100702.00
2023-05-05T23:51:58.468Z,100707.53
2023-05-05T23:54:26.095Z,100706.69
2023-05-05T23:56:53.009Z,100703.91
2023-05-05T23:59:20.097Z,100703.91
